Time;durP1;ratioP1;P1;durP2;ratioP2;P2;SDS_P1;SDS_P2;PMS_P1;PMS_P2;Temp;Humidity;BMP_temperature;BMP_pressure;BME280_temperature;BME280_humidity;BME280_pressure;Samples;Min_cycle;Max_cycle;Signal;HPM_P1;HPM_P2
2021/12/31 00:00:00;;;;;;;17.30;11.45;;;;;;;;;;5069107;28;20420;-65
2021/12/31 00:02:25;;;;;;;14.10;10.57;;;;;;;;;;5069193;28;20012;-65
2021/12/31 00:04:51;;;;;;;10.50;9.55;;;;;;;;;;5061005;28;20793;-65
2021/12/31 00:07:16;;;;;;;13.77;9.45;;;;;;;;;;5066224;28;20039;-65
2021/12/31 00:09:41;;;;;;;12.80;9.10;;;;;;;;;;5052552;28;20099;-65
2021/12/31 00:12:10;;;;;;;14.40;9.00;;;;;;;;;;5051853;28;20631;-65
2021/12/31 00:14:35;;;;;;;10.15;8.82;;;;;;;;;;5049086;28;20415;-64
2021/12/31 00:17:01;;;;;;;17.90;10.20;;;;;;;;;;5060651;28;20051;-65
2021/12/31 00:19:29;;;;;;;11.03;8.37;;;;;;;;;;5068535;28;20123;-65
2021/12/31 00:21:55;;;;;;;13.88;9.07;;;;;;;;;;5070297;28;20438;-65
2021/12/31 00:24:22;;;;;;;12.45;8.30;;;;;;;;;;5064382;28;20036;-65
2021/12/31 00:26:47;;;;;;;15.95;10.38;;;;;;;;;;5070197;28;20028;-64
2021/12/31 00:29:12;;;;;;;12.87;7.97;;;;;;;;;;5069289;28;20048;-65
2021/12/31 00:31:37;;;;;;;15.77;8.75;;;;;;;;;;5070478;28;20063;-64
2021/12/31 00:34:02;;;;;;;17.30;7.90;;;;;;;;;;5054738;28;20025;-64
2021/12/31 00:36:37;;;;;;;15.13;7.83;;;;;;;;;;5058427;28;20081;-64
2021/12/31 00:39:02;;;;;;;10.68;7.95;;;;;;;;;;5049596;28;20031;-65
2021/12/31 00:41:27;;;;;;;9.53;7.53;;;;;;;;;;5064747;28;20020;-65
2021/12/31 00:43:53;;;;;;;12.18;8.00;;;;;;;;;;5069319;28;20468;-64
2021/12/31 00:46:18;;;;;;;11.82;7.60;;;;;;;;;;5070483;28;20025;-65
2021/12/31 00:48:43;;;;;;;18.20;8.35;;;;;;;;;;5069661;28;20126;-65
2021/12/31 00:51:08;;;;;;;11.30;8.10;;;;;;;;;;5068792;28;20047;-66
2021/12/31 00:53:33;;;;;;;14.30;8.10;;;;;;;;;;5070586;28;20097;-66
2021/12/31 00:55:58;;;;;;;12.00;7.57;;;;;;;;;;5059861;28;20552;-66
2021/12/31 00:58:23;;;;;;;8.75;6.82;;;;;;;;;;5050439;28;20032;-65
2021/12/31 01:00:49;;;;;;;13.13;7.63;;;;;;;;;;5054966;28;20043;-66
2021/12/31 01:03:15;;;;;;;10.95;6.97;;;;;;;;;;5053859;28;20496;-64
2021/12/31 01:05:41;;;;;;;12.55;7.38;;;;;;;;;;5060389;28;20051;-65
2021/12/31 01:08:06;;;;;;;10.38;7.15;;;;;;;;;;5054036;28;20501;-66
2021/12/31 01:10:31;;;;;;;12.55;7.68;;;;;;;;;;5051900;28;20072;-66
2021/12/31 01:12:56;;;;;;;21.27;10.07;;;;;;;;;;5054117;28;20082;-66
2021/12/31 01:15:34;;;;;;;12.25;6.95;;;;;;;;;;5063964;28;20480;-66
2021/12/31 01:20:25;;;;;;;13.23;6.85;;;;;;;;;;5072439;28;20052;-65
2021/12/31 01:22:50;;;;;;;14.07;7.57;;;;;;;;;;5070675;28;20031;-66
2021/12/31 01:25:15;;;;;;;9.43;5.90;;;;;;;;;;5072025;28;20454;-66
2021/12/31 01:27:40;;;;;;;7.25;5.47;;;;;;;;;;5073462;28;20423;-65
2021/12/31 01:30:06;;;;;;;10.50;5.68;;;;;;;;;;5069612;28;20115;-65
2021/12/31 01:32:32;;;;;;;12.55;5.57;;;;;;;;;;5053289;28;20025;-64
2021/12/31 01:34:57;;;;;;;12.18;7.10;;;;;;;;;;5051733;28;20040;-64
2021/12/31 01:37:22;;;;;;;12.93;5.88;;;;;;;;;;5067008;28;20036;-64
2021/12/31 01:39:48;;;;;;;12.00;5.37;;;;;;;;;;5071562;28;20029;-65
2021/12/31 01:42:14;;;;;;;8.68;5.72;;;;;;;;;;5073623;28;20755;-65
2021/12/31 01:44:44;;;;;;;11.43;5.50;;;;;;;;;;5071291;28;20028;-63
2021/12/31 01:47:12;;;;;;;11.55;5.30;;;;;;;;;;5053327;28;20029;-65
2021/12/31 01:49:39;;;;;;;11.40;6.47;;;;;;;;;;5052626;28;20067;-64
2021/12/31 01:52:05;;;;;;;10.35;4.43;;;;;;;;;;5072820;28;20019;-64
2021/12/31 01:54:32;;;;;;;13.23;5.32;;;;;;;;;;5071314;28;20025;-65
2021/12/31 01:57:00;;;;;;;9.20;4.82;;;;;;;;;;5073209;28;20021;-65
2021/12/31 01:59:26;;;;;;;7.55;5.25;;;;;;;;;;5057046;28;20044;-65
2021/12/31 02:01:51;;;;;;;10.18;5.00;;;;;;;;;;5052806;28;20025;-65
2021/12/31 02:04:16;;;;;;;7.90;5.15;;;;;;;;;;5059917;28;20044;-65
2021/12/31 02:06:41;;;;;;;11.05;5.25;;;;;;;;;;5072859;28;20368;-66
2021/12/31 02:09:06;;;;;;;6.57;4.90;;;;;;;;;;5052789;28;20072;-65
2021/12/31 02:11:32;;;;;;;10.23;5.75;;;;;;;;;;5051505;28;20018;-66
2021/12/31 02:13:57;;;;;;;31.20;6.38;;;;;;;;;;5051632;28;20028;-66
2021/12/31 02:16:23;;;;;;;12.07;5.00;;;;;;;;;;5053066;28;20068;-63
2021/12/31 02:18:48;;;;;;;8.90;4.63;;;;;;;;;;5070288;28;20025;-63
2021/12/31 02:21:14;;;;;;;18.63;5.83;;;;;;;;;;5053138;28;20017;-63
2021/12/31 02:23:43;;;;;;;6.25;4.00;;;;;;;;;;5053231;28;20092;-63
2021/12/31 02:26:09;;;;;;;14.48;5.95;;;;;;;;;;5056235;28;20689;-63
2021/12/31 02:28:35;;;;;;;5.40;3.80;;;;;;;;;;5072178;28;20491;-64
2021/12/31 02:31:03;;;;;;;8.93;3.88;;;;;;;;;;5070672;28;20040;-63
2021/12/31 02:33:28;;;;;;;6.57;3.70;;;;;;;;;;5058960;28;20024;-63
2021/12/31 02:35:53;;;;;;;8.70;5.00;;;;;;;;;;5070964;28;20039;-63
2021/12/31 02:38:18;;;;;;;4.93;3.33;;;;;;;;;;5054463;28;20043;-65
2021/12/31 02:40:43;;;;;;;4.70;4.13;;;;;;;;;;5050717;28;20492;-65
2021/12/31 02:43:09;;;;;;;5.25;3.72;;;;;;;;;;5053410;28;20017;-63
2021/12/31 02:45:37;;;;;;;7.30;3.33;;;;;;;;;;5050338;28;20094;-64
2021/12/31 02:48:04;;;;;;;13.00;3.90;;;;;;;;;;5067906;28;20997;-63
2021/12/31 02:50:33;;;;;;;8.77;3.97;;;;;;;;;;5058317;28;20499;-65
2021/12/31 02:52:59;;;;;;;7.93;3.97;;;;;;;;;;5051607;28;20480;-63
2021/12/31 02:55:25;;;;;;;5.10;3.20;;;;;;;;;;5067012;28;20056;-63
2021/12/31 02:57:51;;;;;;;9.57;4.07;;;;;;;;;;5056564;28;20027;-63
2021/12/31 03:00:16;;;;;;;5.95;2.67;;;;;;;;;;5070201;28;20287;-63
2021/12/31 03:02:41;;;;;;;8.25;3.47;;;;;;;;;;5071403;28;20016;-64
2021/12/31 03:05:10;;;;;;;6.53;3.67;;;;;;;;;;5070506;28;20036;-65
2021/12/31 03:07:36;;;;;;;5.47;3.50;;;;;;;;;;5059089;28;20016;-64
2021/12/31 03:10:01;;;;;;;8.23;4.55;;;;;;;;;;5070044;28;20469;-63
2021/12/31 03:12:27;;;;;;;4.72;3.13;;;;;;;;;;5071416;28;20029;-64
2021/12/31 03:14:54;;;;;;;7.87;3.93;;;;;;;;;;5069537;28;20509;-65
2021/12/31 03:17:19;;;;;;;8.43;4.35;;;;;;;;;;5062361;28;21083;-67
2021/12/31 03:19:44;;;;;;;9.68;4.10;;;;;;;;;;5050962;28;20036;-67
2021/12/31 03:22:10;;;;;;;8.83;4.30;;;;;;;;;;5061413;28;20067;-67
2021/12/31 03:24:35;;;;;;;15.03;3.20;;;;;;;;;;5050089;28;20471;-65
2021/12/31 03:27:00;;;;;;;11.55;4.20;;;;;;;;;;5067379;28;20466;-67
2021/12/31 03:29:25;;;;;;;7.32;2.95;;;;;;;;;;5069591;28;20028;-65
2021/12/31 03:31:51;;;;;;;7.77;3.93;;;;;;;;;;5068377;28;20020;-67
2021/12/31 03:34:16;;;;;;;9.55;3.20;;;;;;;;;;5062348;28;20127;-66
2021/12/31 03:36:42;;;;;;;5.03;3.58;;;;;;;;;;5059667;28;20498;-67
2021/12/31 03:39:07;;;;;;;6.43;3.22;;;;;;;;;;5049592;28;20132;-65
2021/12/31 03:41:32;;;;;;;8.52;4.40;;;;;;;;;;5051234;28;20021;-67
2021/12/31 03:43:57;;;;;;;9.20;4.37;;;;;;;;;;5049988;28;20066;-66
2021/12/31 03:46:23;;;;;;;7.03;3.95;;;;;;;;;;5058529;28;20876;-66
2021/12/31 03:48:48;;;;;;;6.40;3.85;;;;;;;;;;5069099;28;20025;-66
2021/12/31 03:51:13;;;;;;;9.43;4.05;;;;;;;;;;5070715;28;20021;-66
2021/12/31 03:53:38;;;;;;;6.68;3.90;;;;;;;;;;5064244;28;20399;-66
2021/12/31 03:56:04;;;;;;;4.60;2.22;;;;;;;;;;5069727;28;20488;-66
2021/12/31 03:58:29;;;;;;;3.20;2.72;;;;;;;;;;5070993;28;20048;-67
2021/12/31 04:00:54;;;;;;;8.05;4.90;;;;;;;;;;5065956;28;20107;-67
2021/12/31 04:03:19;;;;;;;5.07;2.92;;;;;;;;;;5070975;28;20009;-63
2021/12/31 04:05:44;;;;;;;9.47;3.20;;;;;;;;;;5065968;28;20100;-63
2021/12/31 04:08:10;;;;;;;12.48;3.88;;;;;;;;;;5057545;28;20082;-63
2021/12/31 04:10:35;;;;;;;8.48;3.50;;;;;;;;;;5068879;28;20036;-63
2021/12/31 04:13:00;;;;;;;2.95;2.60;;;;;;;;;;5071071;28;20042;-63
2021/12/31 04:15:26;;;;;;;9.80;3.95;;;;;;;;;;5068971;28;20585;-63
2021/12/31 04:17:51;;;;;;;10.82;3.75;;;;;;;;;;5055853;28;20041;-64
2021/12/31 04:20:34;;;;;;;5.20;3.33;;;;;;;;;;5049603;28;20065;-62
2021/12/31 04:23:02;;;;;;;6.47;3.83;;;;;;;;;;5059113;28;20024;-63
2021/12/31 04:25:27;;;;;;;5.47;4.00;;;;;;;;;;5066067;28;20071;-64
2021/12/31 04:27:52;;;;;;;11.95;4.07;;;;;;;;;;5050965;28;20049;-67
2021/12/31 04:30:17;;;;;;;8.83;4.07;;;;;;;;;;5065107;28;20538;-67
2021/12/31 04:32:43;;;;;;;11.60;3.03;;;;;;;;;;5070553;28;20059;-66
2021/12/31 04:35:11;;;;;;;6.05;4.35;;;;;;;;;;5071753;28;20041;-66
2021/12/31 04:37:36;;;;;;;4.22;3.22;;;;;;;;;;5074031;28;20046;-66
2021/12/31 04:40:01;;;;;;;9.02;2.97;;;;;;;;;;5071473;28;20037;-64
2021/12/31 04:42:27;;;;;;;3.63;3.20;;;;;;;;;;5074645;28;20020;-63
2021/12/31 04:44:52;;;;;;;7.37;3.77;;;;;;;;;;5070952;28;20133;-62
2021/12/31 04:47:17;;;;;;;7.68;2.92;;;;;;;;;;5064780;28;20050;-63
2021/12/31 04:49:42;;;;;;;13.38;4.32;;;;;;;;;;5052551;28;20514;-62
2021/12/31 04:52:07;;;;;;;4.82;3.80;;;;;;;;;;5059290;28;20012;-65
2021/12/31 04:54:32;;;;;;;3.90;3.22;;;;;;;;;;5052803;28;20041;-65
2021/12/31 04:56:59;;;;;;;6.37;3.67;;;;;;;;;;5061460;28;20087;-64
2021/12/31 04:59:24;;;;;;;9.00;3.10;;;;;;;;;;5072362;28;21009;-65
2021/12/31 05:01:49;;;;;;;10.15;4.32;;;;;;;;;;5064026;28;20021;-65
2021/12/31 05:04:15;;;;;;;9.60;4.20;;;;;;;;;;5054109;28;20496;-65
2021/12/31 05:06:40;;;;;;;11.05;3.40;;;;;;;;;;5053353;28;20434;-65
2021/12/31 05:09:05;;;;;;;6.80;2.95;;;;;;;;;;5059730;28;20063;-65
2021/12/31 05:11:31;;;;;;;6.20;4.13;;;;;;;;;;5073964;28;20020;-65
2021/12/31 05:13:56;;;;;;;10.33;3.27;;;;;;;;;;5070642;28;20435;-66
2021/12/31 05:16:21;;;;;;;7.40;3.93;;;;;;;;;;5071116;28;21023;-65
2021/12/31 05:18:46;;;;;;;7.72;3.70;;;;;;;;;;5073725;28;20522;-64
2021/12/31 05:21:11;;;;;;;8.63;5.47;;;;;;;;;;5072043;28;20025;-66
2021/12/31 05:23:36;;;;;;;6.13;4.57;;;;;;;;;;5061807;28;20443;-66
2021/12/31 05:26:02;;;;;;;4.60;3.57;;;;;;;;;;5054529;28;20462;-66
2021/12/31 05:28:27;;;;;;;7.95;3.42;;;;;;;;;;5064207;28;20452;-65
2021/12/31 05:30:52;;;;;;;10.40;3.80;;;;;;;;;;5052145;28;20048;-65
2021/12/31 05:33:17;;;;;;;13.77;6.03;;;;;;;;;;5063220;28;20046;-65
2021/12/31 05:35:42;;;;;;;15.38;5.32;;;;;;;;;;5071522;28;20454;-65
2021/12/31 05:38:07;;;;;;;11.67;4.60;;;;;;;;;;5073635;28;20154;-65
2021/12/31 05:40:34;;;;;;;6.75;3.75;;;;;;;;;;5070838;28;20043;-66
2021/12/31 05:42:59;;;;;;;9.90;4.90;;;;;;;;;;5071997;28;20016;-66
2021/12/31 05:45:24;;;;;;;9.57;4.65;;;;;;;;;;5071655;28;20051;-66
2021/12/31 05:47:49;;;;;;;7.57;4.07;;;;;;;;;;5073445;28;20066;-66
2021/12/31 05:50:27;;;;;;;8.45;4.22;;;;;;;;;;5071032;28;20474;-66
2021/12/31 05:52:53;;;;;;;11.45;3.42;;;;;;;;;;5046126;28;20028;-66
2021/12/31 05:55:18;;;;;;;12.13;4.78;;;;;;;;;;5057828;28;20155;-63
2021/12/31 05:57:43;;;;;;;7.53;3.88;;;;;;;;;;5062062;28;20032;-64
2021/12/31 06:00:08;;;;;;;12.40;4.28;;;;;;;;;;5071367;28;20039;-63
2021/12/31 06:02:34;;;;;;;8.20;3.63;;;;;;;;;;5072853;28;20191;-63
2021/12/31 06:04:59;;;;;;;6.45;3.70;;;;;;;;;;5068692;28;20032;-63
2021/12/31 06:07:24;;;;;;;7.63;3.57;;;;;;;;;;5053151;28;20020;-61
2021/12/31 06:09:49;;;;;;;13.38;5.00;;;;;;;;;;5053225;28;20463;-59
2021/12/31 06:12:14;;;;;;;9.70;5.50;;;;;;;;;;5052952;28;20036;-62
2021/12/31 06:14:40;;;;;;;6.68;4.20;;;;;;;;;;5058276;28;20487;-61
2021/12/31 06:17:07;;;;;;;7.50;4.05;;;;;;;;;;5064715;28;20049;-60
2021/12/31 06:19:33;;;;;;;8.32;4.68;;;;;;;;;;5050990;28;20392;-61
2021/12/31 06:21:58;;;;;;;9.35;4.22;;;;;;;;;;5058543;28;20028;-61
2021/12/31 06:24:23;;;;;;;8.50;4.47;;;;;;;;;;5059465;28;20488;-60
2021/12/31 06:26:48;;;;;;;5.85;4.43;;;;;;;;;;5060420;28;20033;-61
2021/12/31 06:29:13;;;;;;;8.07;3.72;;;;;;;;;;5050487;28;20043;-61
2021/12/31 06:31:39;;;;;;;13.30;3.95;;;;;;;;;;5051575;28;20479;-61
2021/12/31 06:34:04;;;;;;;11.85;5.43;;;;;;;;;;5056723;28;20029;-61
2021/12/31 06:36:29;;;;;;;11.27;4.53;;;;;;;;;;5049941;28;20039;-61
2021/12/31 06:38:54;;;;;;;6.65;4.35;;;;;;;;;;5055279;28;20439;-61
2021/12/31 06:41:20;;;;;;;9.15;4.40;;;;;;;;;;5054425;28;20033;-61
2021/12/31 06:43:45;;;;;;;11.10;5.18;;;;;;;;;;5052311;28;20111;-62
2021/12/31 06:46:10;;;;;;;9.70;5.53;;;;;;;;;;5047443;28;20112;-61
2021/12/31 06:48:35;;;;;;;11.30;4.37;;;;;;;;;;5052085;28;20803;-61
2021/12/31 06:51:01;;;;;;;6.07;3.45;;;;;;;;;;5045435;28;20037;-61
2021/12/31 06:53:26;;;;;;;7.72;3.85;;;;;;;;;;5054308;28;20028;-61
2021/12/31 06:55:51;;;;;;;49.95;6.35;;;;;;;;;;5065481;28;20463;-63
2021/12/31 06:58:16;;;;;;;7.50;3.50;;;;;;;;;;5054516;28;20028;-62
2021/12/31 07:00:41;;;;;;;6.40;3.90;;;;;;;;;;5057066;28;20119;-63
2021/12/31 07:03:07;;;;;;;20.40;5.97;;;;;;;;;;5056053;28;20043;-63
2021/12/31 07:05:32;;;;;;;13.35;4.72;;;;;;;;;;5049287;28;20819;-62
2021/12/31 07:07:58;;;;;;;3.85;3.55;;;;;;;;;;5050076;28;20025;-63
2021/12/31 07:10:23;;;;;;;8.80;4.65;;;;;;;;;;5051518;28;20082;-62
2021/12/31 07:12:48;;;;;;;8.38;4.80;;;;;;;;;;5061905;28;20032;-62
2021/12/31 07:15:13;;;;;;;7.80;3.83;;;;;;;;;;5063353;28;20526;-62
2021/12/31 07:17:38;;;;;;;6.00;3.28;;;;;;;;;;5067413;28;20094;-62
2021/12/31 07:20:04;;;;;;;6.88;3.42;;;;;;;;;;5059826;28;20044;-62
2021/12/31 07:22:29;;;;;;;8.70;3.40;;;;;;;;;;5050191;28;20017;-60
2021/12/31 07:24:54;;;;;;;8.32;4.03;;;;;;;;;;5050359;28;20048;-60
2021/12/31 07:27:19;;;;;;;7.33;3.37;;;;;;;;;;5046365;28;20021;-60
2021/12/31 07:29:45;;;;;;;8.52;4.13;;;;;;;;;;5046126;28;20826;-60
2021/12/31 07:32:10;;;;;;;5.63;3.80;;;;;;;;;;5048708;28;20052;-59
2021/12/31 07:34:35;;;;;;;11.60;4.07;;;;;;;;;;5047040;28;20100;-60
2021/12/31 07:37:00;;;;;;;4.30;3.08;;;;;;;;;;5048796;28;20029;-60
2021/12/31 07:39:31;;;;;;;10.23;3.65;;;;;;;;;;5047487;28;20148;-59
2021/12/31 07:41:56;;;;;;;5.80;4.18;;;;;;;;;;5050493;28;20037;-60
2021/12/31 07:44:21;;;;;;;7.93;5.05;;;;;;;;;;5053043;28;20020;-60
2021/12/31 07:46:46;;;;;;;5.28;3.60;;;;;;;;;;5050333;28;20029;-61
2021/12/31 07:49:11;;;;;;;6.63;4.20;;;;;;;;;;5051268;28;20086;-58
2021/12/31 07:51:36;;;;;;;7.53;3.43;;;;;;;;;;5059993;28;20455;-59
2021/12/31 07:54:02;;;;;;;4.30;3.53;;;;;;;;;;5054250;28;20048;-59
2021/12/31 07:56:28;;;;;;;5.00;2.92;;;;;;;;;;5048672;28;20037;-59
2021/12/31 07:58:53;;;;;;;13.50;4.72;;;;;;;;;;5055838;28;20103;-59
2021/12/31 08:01:18;;;;;;;5.05;2.58;;;;;;;;;;5048748;28;20029;-59
2021/12/31 08:03:43;;;;;;;5.00;3.43;;;;;;;;;;5065884;28;20012;-59
2021/12/31 08:06:09;;;;;;;7.07;2.97;;;;;;;;;;5050503;28;20451;-59
2021/12/31 08:08:34;;;;;;;6.80;4.67;;;;;;;;;;5064646;28;20914;-59
2021/12/31 08:10:59;;;;;;;8.23;3.97;;;;;;;;;;5059575;28;20493;-58
2021/12/31 08:13:25;;;;;;;5.13;3.22;;;;;;;;;;5066958;28;20446;-58
2021/12/31 08:15:50;;;;;;;6.20;2.90;;;;;;;;;;5057372;28;20114;-59
2021/12/31 08:18:15;;;;;;;9.37;3.27;;;;;;;;;;5059812;28;20128;-59
2021/12/31 08:20:40;;;;;;;9.87;3.77;;;;;;;;;;5044191;28;20034;-59
2021/12/31 08:23:09;;;;;;;6.67;3.13;;;;;;;;;;5054819;28;20079;-58
2021/12/31 08:25:35;;;;;;;6.95;4.25;;;;;;;;;;5054962;28;20044;-59
2021/12/31 08:28:00;;;;;;;6.32;4.20;;;;;;;;;;5052954;28;20017;-59
2021/12/31 08:30:25;;;;;;;7.88;2.67;;;;;;;;;;5053775;28;20449;-59
2021/12/31 08:32:50;;;;;;;7.97;4.07;;;;;;;;;;5060397;28;20044;-59
2021/12/31 08:35:15;;;;;;;8.57;3.95;;;;;;;;;;5062312;28;20120;-58
2021/12/31 08:37:41;;;;;;;5.35;3.15;;;;;;;;;;5063312;28;20430;-58
2021/12/31 08:40:06;;;;;;;12.17;4.33;;;;;;;;;;5062917;28;20041;-58
2021/12/31 08:42:31;;;;;;;5.93;3.05;;;;;;;;;;5071816;28;20450;-58
2021/12/31 08:44:57;;;;;;;4.65;3.47;;;;;;;;;;5072667;28;20032;-58
2021/12/31 08:47:22;;;;;;;3.80;3.30;;;;;;;;;;5065974;28;20058;-58
2021/12/31 08:49:47;;;;;;;5.17;3.33;;;;;;;;;;5052744;28;20116;-59
2021/12/31 08:52:12;;;;;;;7.82;3.53;;;;;;;;;;5050315;28;20051;-58
2021/12/31 08:54:38;;;;;;;5.22;3.10;;;;;;;;;;5051245;28;20423;-58
2021/12/31 08:57:03;;;;;;;3.53;2.78;;;;;;;;;;5054804;28;20486;-59
2021/12/31 08:59:28;;;;;;;6.10;3.70;;;;;;;;;;5051937;28;20052;-58
2021/12/31 09:01:53;;;;;;;7.85;3.25;;;;;;;;;;5053252;28;20116;-58
2021/12/31 09:04:18;;;;;;;6.03;3.40;;;;;;;;;;5050273;28;20052;-58
2021/12/31 09:06:44;;;;;;;11.27;3.23;;;;;;;;;;5048023;28;20020;-59
2021/12/31 09:09:09;;;;;;;8.10;3.83;;;;;;;;;;5060765;28;20400;-58
2021/12/31 09:11:34;;;;;;;3.57;2.70;;;;;;;;;;5052145;28;20484;-58
2021/12/31 09:13:59;;;;;;;5.63;2.85;;;;;;;;;;5052620;28;20459;-58
2021/12/31 09:16:24;;;;;;;9.20;3.92;;;;;;;;;;5050973;28;20033;-59
2021/12/31 09:18:50;;;;;;;6.57;3.25;;;;;;;;;;5051742;28;20373;-58
2021/12/31 09:21:20;;;;;;;4.75;3.92;;;;;;;;;;5068743;28;20029;-58
2021/12/31 09:23:45;;;;;;;6.07;2.85;;;;;;;;;;5046797;28;20886;-58
2021/12/31 09:26:10;;;;;;;4.72;2.92;;;;;;;;;;5050777;28;20086;-58
2021/12/31 09:28:35;;;;;;;8.88;3.22;;;;;;;;;;5050452;28;20028;-58
2021/12/31 09:31:02;;;;;;;5.83;2.90;;;;;;;;;;5050149;28;20124;-59
2021/12/31 09:33:28;;;;;;;7.47;3.92;;;;;;;;;;5051996;28;20025;-58
2021/12/31 09:35:53;;;;;;;4.93;3.65;;;;;;;;;;5060593;28;20583;-58
2021/12/31 09:38:18;;;;;;;4.70;3.63;;;;;;;;;;5052519;28;20032;-58
2021/12/31 09:40:43;;;;;;;3.78;3.40;;;;;;;;;;5050090;28;20026;-58
2021/12/31 09:43:12;;;;;;;5.73;2.73;;;;;;;;;;5061935;28;20399;-58
2021/12/31 09:45:38;;;;;;;2.70;2.50;;;;;;;;;;5068848;28;20037;-58
2021/12/31 09:48:07;;;;;;;8.40;3.65;;;;;;;;;;5061471;28;20075;-59
2021/12/31 09:50:34;;;;;;;6.32;3.17;;;;;;;;;;5050861;28;20072;-58
2021/12/31 09:52:59;;;;;;;3.50;3.20;;;;;;;;;;5052602;28;20468;-58
2021/12/31 09:55:41;;;;;;;4.37;3.83;;;;;;;;;;5050548;28;20090;-58
2021/12/31 09:58:08;;;;;;;6.70;3.40;;;;;;;;;;5060829;28;20025;-58
2021/12/31 10:00:33;;;;;;;4.63;3.25;;;;;;;;;;5050469;28;20116;-59
2021/12/31 10:03:12;;;;;;;4.82;3.50;;;;;;;;;;5051935;28;20461;-59
2021/12/31 10:05:37;;;;;;;;;;;;;;;;;;5058563;28;20634;-58
2021/12/31 10:08:11;;;;;;;3.63;3.00;;;;;;;;;;5052374;28;20335;-59
2021/12/31 10:10:37;;;;;;;4.07;3.60;;;;;;;;;;5053267;28;20047;-58
2021/12/31 10:13:02;;;;;;;10.73;3.65;;;;;;;;;;5052349;28;20104;-58
2021/12/31 10:15:27;;;;;;;12.02;4.55;;;;;;;;;;5048156;28;20124;-58
2021/12/31 10:17:53;;;;;;;5.40;3.27;;;;;;;;;;5049244;28;20060;-58
2021/12/31 10:20:18;;;;;;;5.45;3.20;;;;;;;;;;5050758;28;20055;-58
2021/12/31 10:22:44;;;;;;;4.90;3.58;;;;;;;;;;5051407;28;20025;-58
2021/12/31 10:25:20;;;;;;;4.38;3.55;;;;;;;;;;5049470;28;20123;-58
2021/12/31 10:27:45;;;;;;;5.75;2.83;;;;;;;;;;5051786;28;20065;-59
2021/12/31 10:30:11;;;;;;;5.18;3.72;;;;;;;;;;5052597;28;20072;-59
2021/12/31 10:32:40;;;;;;;7.53;4.22;;;;;;;;;;5054818;28;20492;-61
2021/12/31 10:35:08;;;;;;;6.30;4.95;;;;;;;;;;5068138;28;20361;-60
2021/12/31 10:37:40;;;;;;;21.17;5.95;;;;;;;;;;5065488;28;20092;-60
2021/12/31 10:40:06;;;;;;;2.90;2.65;;;;;;;;;;5052918;28;20041;-62
2021/12/31 10:42:32;;;;;;;5.13;4.35;;;;;;;;;;5052148;28;20418;-59
2021/12/31 10:44:57;;;;;;;7.45;5.03;;;;;;;;;;5049870;28;20037;-60
2021/12/31 10:47:27;;;;;;;13.23;5.05;;;;;;;;;;5055353;28;20271;-61
2021/12/31 10:49:55;;;;;;;8.77;5.80;;;;;;;;;;5055944;28;20029;-60
2021/12/31 10:52:32;;;;;;;6.95;3.70;;;;;;;;;;5066232;28;20434;-60
2021/12/31 10:55:03;;;;;;;7.25;4.72;;;;;;;;;;5063075;28;20048;-60
2021/12/31 10:57:35;;;;;;;6.20;3.30;;;;;;;;;;5036509;28;20036;-60
2021/12/31 11:00:00;;;;;;;4.38;2.85;;;;;;;;;;5048513;28;20033;-60
2021/12/31 11:02:25;;;;;;;3.90;3.40;;;;;;;;;;5048192;28;20024;-61
2021/12/31 11:04:51;;;;;;;6.27;4.20;;;;;;;;;;5049575;28;20029;-61
2021/12/31 11:07:16;;;;;;;3.65;3.08;;;;;;;;;;5058182;28;20311;-60
2021/12/31 11:09:43;;;;;;;8.18;4.47;;;;;;;;;;5058560;28;20044;-60
2021/12/31 11:12:08;;;;;;;4.55;3.38;;;;;;;;;;5064860;28;20119;-61
2021/12/31 11:14:36;;;;;;;5.72;4.20;;;;;;;;;;5048018;28;20124;-60
2021/12/31 11:17:01;;;;;;;7.78;4.03;;;;;;;;;;5049493;28;20044;-61
2021/12/31 11:19:26;;;;;;;6.53;4.10;;;;;;;;;;5049285;28;20049;-60
2021/12/31 11:21:53;;;;;;;6.55;4.75;;;;;;;;;;5058877;28;20482;-59
2021/12/31 11:24:31;;;;;;;5.00;3.88;;;;;;;;;;5052368;28;20037;-60
2021/12/31 11:26:57;;;;;;;6.28;3.88;;;;;;;;;;5050611;28;20037;-60
2021/12/31 11:29:23;;;;;;;5.03;3.30;;;;;;;;;;5051906;28;20033;-60
2021/12/31 11:31:48;;;;;;;5.17;3.77;;;;;;;;;;5064221;28;20031;-60
2021/12/31 11:34:14;;;;;;;6.32;3.75;;;;;;;;;;5051483;28;20474;-60
2021/12/31 11:36:42;;;;;;;6.68;4.15;;;;;;;;;;5068711;28;20020;-60
2021/12/31 11:39:15;;;;;;;6.35;4.18;;;;;;;;;;5061882;28;20048;-60
2021/12/31 11:41:40;;;;;;;3.83;3.17;;;;;;;;;;5050819;28;20436;-60
2021/12/31 11:44:07;;;;;;;21.73;14.65;;;;;;;;;;5067129;28;20063;-61
2021/12/31 11:46:37;;;;;;;6.05;4.40;;;;;;;;;;5053423;28;20503;-59
2021/12/31 11:49:07;;;;;;;4.43;4.03;;;;;;;;;;5048977;28;20025;-59
2021/12/31 11:51:36;;;;;;;6.05;4.00;;;;;;;;;;5050389;28;20024;-59
2021/12/31 11:54:03;;;;;;;9.02;5.05;;;;;;;;;;5048739;28;20494;-59
2021/12/31 11:56:37;;;;;;;7.47;4.70;;;;;;;;;;5050830;28;20101;-60
2021/12/31 11:59:14;;;;;;;4.82;3.90;;;;;;;;;;5049075;28;20753;-59
2021/12/31 12:01:43;;;;;;;5.22;3.92;;;;;;;;;;5065232;28;20395;-59
2021/12/31 12:04:21;;;;;;;6.85;4.68;;;;;;;;;;5041186;28;20041;-59
2021/12/31 12:07:01;;;;;;;5.68;3.88;;;;;;;;;;5044898;28;20029;-59
2021/12/31 12:09:35;;;;;;;8.15;3.60;;;;;;;;;;5053544;28;20044;-61
2021/12/31 12:12:02;;;;;;;8.52;4.10;;;;;;;;;;5050166;28;20020;-59
2021/12/31 12:14:31;;;;;;;15.68;4.53;;;;;;;;;;5034974;28;20098;-59
2021/12/31 12:16:57;;;;;;;4.32;3.72;;;;;;;;;;5061239;28;20055;-59
2021/12/31 12:19:22;;;;;;;8.32;3.88;;;;;;;;;;5053296;28;20037;-59
2021/12/31 12:21:51;;;;;;;5.50;4.88;;;;;;;;;;5057667;28;20470;-59
2021/12/31 12:24:22;;;;;;;4.45;4.05;;;;;;;;;;5066314;28;20032;-59
2021/12/31 12:26:47;;;;;;;7.93;5.00;;;;;;;;;;5038422;28;20024;-58
2021/12/31 12:29:23;;;;;;;8.07;4.10;;;;;;;;;;5048334;28;20098;-59
2021/12/31 12:32:05;;;;;;;5.65;4.13;;;;;;;;;;5054356;28;20111;-59
2021/12/31 12:34:31;;;;;;;6.75;4.82;;;;;;;;;;5065818;28;20395;-59
2021/12/31 12:36:56;;;;;;;9.90;4.32;;;;;;;;;;5057236;28;20029;-59
2021/12/31 12:39:21;;;;;;;4.50;4.10;;;;;;;;;;5056486;28;20056;-59
2021/12/31 12:41:50;;;;;;;5.35;3.40;;;;;;;;;;5053999;28;20041;-59
2021/12/31 12:44:16;;;;;;;6.03;3.78;;;;;;;;;;5054209;28;20633;-59
2021/12/31 12:46:54;;;;;;;4.50;4.10;;;;;;;;;;5064625;28;20078;-59
2021/12/31 12:49:20;;;;;;;6.63;4.22;;;;;;;;;;5048720;28;20446;-58
2021/12/31 12:51:46;;;;;;;8.10;3.90;;;;;;;;;;5049866;28;20021;-59
2021/12/31 12:54:17;;;;;;;8.50;5.40;;;;;;;;;;5053140;28;20542;-59
2021/12/31 12:56:42;;;;;;;9.93;4.85;;;;;;;;;;5053056;28;20081;-58
2021/12/31 12:59:07;;;;;;;6.60;5.53;;;;;;;;;;5052484;28;20041;-58
2021/12/31 13:01:33;;;;;;;6.00;3.60;;;;;;;;;;5053479;28;21016;-59
2021/12/31 13:03:59;;;;;;;170.15;151.57;;;;;;;;;;5048902;28;20021;-59
2021/12/31 13:06:25;;;;;;;38.00;34.67;;;;;;;;;;5052224;28;20031;-59
2021/12/31 13:09:10;;;;;;;8.55;3.58;;;;;;;;;;5050108;28;20017;-59
2021/12/31 13:11:37;;;;;;;9.25;5.20;;;;;;;;;;5039604;28;20028;-58
2021/12/31 13:14:03;;;;;;;10.90;8.60;;;;;;;;;;5068724;28;20025;-59
2021/12/31 13:16:28;;;;;;;9.07;8.23;;;;;;;;;;5062238;28;20048;-59
2021/12/31 13:18:54;;;;;;;7.40;4.20;;;;;;;;;;5067033;28;20068;-59
2021/12/31 13:21:20;;;;;;;119.30;91.30;;;;;;;;;;5049022;28;20029;-59
2021/12/31 13:23:50;;;;;;;30.60;27.92;;;;;;;;;;5048996;28;20036;-58
2021/12/31 13:26:35;;;;;;;10.27;8.85;;;;;;;;;;5049500;28;20044;-59
2021/12/31 13:29:01;;;;;;;40.28;36.95;;;;;;;;;;5049061;28;20072;-59
2021/12/31 13:31:32;;;;;;;10.60;9.70;;;;;;;;;;5060224;28;20452;-59
2021/12/31 13:33:57;;;;;;;6.65;4.47;;;;;;;;;;5049654;28;20025;-59
2021/12/31 13:36:22;;;;;;;5.57;4.25;;;;;;;;;;5052696;28;20352;-59
2021/12/31 13:39:01;;;;;;;7.70;5.57;;;;;;;;;;5058881;28;20064;-59
2021/12/31 13:41:27;;;;;;;22.92;19.75;;;;;;;;;;5056950;28;20097;-59
2021/12/31 13:43:53;;;;;;;36.38;33.05;;;;;;;;;;5051549;28;20159;-59
2021/12/31 13:46:18;;;;;;;13.32;7.93;;;;;;;;;;5069241;28;20418;-58
2021/12/31 13:48:44;;;;;;;13.85;11.77;;;;;;;;;;5056060;28;20071;-59
2021/12/31 13:51:28;;;;;;;42.58;38.08;;;;;;;;;;5049413;28;20052;-59
2021/12/31 13:53:53;;;;;;;19.27;17.48;;;;;;;;;;5049254;28;20029;-59
2021/12/31 13:56:18;;;;;;;22.47;18.63;;;;;;;;;;5051768;28;20418;-59
2021/12/31 13:58:43;;;;;;;13.38;12.07;;;;;;;;;;5051934;28;20021;-59
2021/12/31 14:01:14;;;;;;;18.37;15.00;;;;;;;;;;5050579;28;20094;-59
2021/12/31 14:03:40;;;;;;;10.70;8.45;;;;;;;;;;5052215;28;20455;-58
2021/12/31 14:06:14;;;;;;;20.27;15.27;;;;;;;;;;5050092;28;20519;-58
2021/12/31 14:11:04;;;;;;;85.63;79.13;;;;;;;;;;5050871;28;20037;-59
2021/12/31 14:13:29;;;;;;;23.15;10.80;;;;;;;;;;5063576;28;20024;-59
2021/12/31 14:15:55;;;;;;;16.33;10.33;;;;;;;;;;5052138;28;20045;-59
2021/12/31 14:18:20;;;;;;;17.00;15.20;;;;;;;;;;5057070;28;20482;-59
2021/12/31 14:20:45;;;;;;;10.83;7.47;;;;;;;;;;5048566;28;20033;-59
2021/12/31 14:23:11;;;;;;;18.15;16.45;;;;;;;;;;5052209;28;20446;-59
2021/12/31 14:25:39;;;;;;;7.72;5.32;;;;;;;;;;5050473;28;20037;-58
2021/12/31 14:28:04;;;;;;;7.50;5.53;;;;;;;;;;5051891;28;20017;-59
2021/12/31 14:30:30;;;;;;;109.57;100.93;;;;;;;;;;5049189;28;20119;-59
2021/12/31 14:32:58;;;;;;;12.40;8.48;;;;;;;;;;5051718;28;20021;-59
2021/12/31 14:35:28;;;;;;;36.30;32.95;;;;;;;;;;5053751;28;20392;-59
2021/12/31 14:37:53;;;;;;;12.73;10.77;;;;;;;;;;5070664;28;20032;-59